createdAt,value
2022-11-06T00:04:23.723Z,98663.97
2022-11-06T00:09:26.437Z,98664.53
2022-11-06T00:14:29.142Z,98654.53
2022-11-06T00:19:33.327Z,98646.06
2022-11-06T00:24:36.028Z,98637.06
2022-11-06T00:29:38.770Z,98635.25
2022-11-06T00:34:43.380Z,98633.25
2022-11-06T00:39:46.140Z,98633.13
2022-11-06T00:44:49.138Z,98639.50
2022-11-06T00:49:53.200Z,98643.72
2022-11-06T00:54:55.943Z,98641.50
2022-11-06T00:59:58.641Z,98642.47
2022-11-06T01:05:02.820Z,98642.88
2022-11-06T01:10:06.764Z,98633.53
2022-11-06T01:15:10.232Z,98631.63
2022-11-06T01:20:14.370Z,98638.41
2022-11-06T01:25:17.287Z,98649.47
2022-11-06T01:30:20.022Z,98650.19
2022-11-06T01:35:24.413Z,98635.47
2022-11-06T01:40:27.385Z,98638.22
2022-11-06T01:45:40.811Z,98620.28
2022-11-06T01:50:47.321Z,98622.22
2022-11-06T01:55:54.036Z,98616.16
2022-11-06T02:00:56.913Z,98613.44
2022-11-06T02:06:01.848Z,98609.81
2022-11-06T02:11:04.734Z,98589.13
2022-11-06T02:16:14.389Z,98582.97
2022-11-06T02:21:40.998Z,98592.75
2022-11-06T02:27:10.255Z,98590.09
2022-11-06T02:32:18.532Z,98594.31
2022-11-06T02:37:27.942Z,98586.91
2022-11-06T02:42:34.841Z,98581.63
2022-11-06T02:47:41.108Z,98591.56
2022-11-06T02:52:48.175Z,98589.66
2022-11-06T02:57:56.057Z,98593.91
2022-11-06T03:03:02.398Z,98579.78
2022-11-06T03:08:12.355Z,98580.31
2022-11-06T03:13:22.123Z,98579.16
2022-11-06T03:18:33.639Z,98569.84
2022-11-06T03:23:41.287Z,98582.34
2022-11-06T03:28:53.444Z,98575.56
2022-11-06T03:34:00.817Z,98566.47
2022-11-06T03:39:09.669Z,98564.31
2022-11-06T03:44:16.778Z,98568.16
2022-11-06T03:49:25.308Z,98550.97
2022-11-06T03:54:32.136Z,98546.22
2022-11-06T03:59:42.272Z,98537.31
2022-11-06T04:04:49.785Z,98543.34
2022-11-06T04:10:13.684Z,98558.94
2022-11-06T04:15:20.605Z,98589.66
2022-11-06T04:20:48.162Z,98580.34
2022-11-06T04:26:21.074Z,98577.56
2022-11-06T04:31:33.034Z,98574.84
2022-11-06T04:36:43.531Z,98567.63
2022-11-06T04:41:55.623Z,98581.91
2022-11-06T04:47:02.055Z,98578.31
2022-11-06T04:52:10.296Z,98573.84
2022-11-06T04:57:13.005Z,98564.19
2022-11-06T05:02:17.197Z,98568.50
2022-11-06T05:07:19.938Z,98559.50
2022-11-06T05:12:22.718Z,98556.66
2022-11-06T05:17:26.918Z,98561.53
2022-11-06T05:22:47.568Z,98541.63
2022-11-06T05:27:51.523Z,98532.75
2022-11-06T05:32:55.749Z,98522.16
2022-11-06T05:38:02.642Z,98524.50
2022-11-06T05:43:05.444Z,98515.22
2022-11-06T05:48:09.722Z,98504.31
2022-11-06T05:53:12.507Z,98489.78
2022-11-06T05:58:15.858Z,98473.16
2022-11-06T06:03:21.202Z,98476.13
2022-11-06T06:08:24.123Z,98481.16
2022-11-06T06:13:26.935Z,98454.47
2022-11-06T06:18:31.198Z,98446.00
2022-11-06T06:23:33.902Z,98448.19
2022-11-06T06:28:36.936Z,98442.16
2022-11-06T06:33:40.998Z,98435.38
2022-11-06T06:38:43.717Z,98443.31
2022-11-06T06:43:49.372Z,98441.94
2022-11-06T06:48:53.512Z,98438.78
2022-11-06T06:53:56.259Z,98430.97
2022-11-06T06:58:59.039Z,98423.69
2022-11-06T07:04:04.585Z,98431.34
2022-11-06T07:09:07.520Z,98444.59
2022-11-06T07:14:11.145Z,98441.03
2022-11-06T07:19:15.303Z,98437.66
2022-11-06T07:24:18.861Z,98437.34
2022-11-06T07:29:21.684Z,98443.22
2022-11-06T07:34:25.927Z,98447.47
2022-11-06T07:39:28.949Z,98461.25
2022-11-06T07:44:33.364Z,98466.97
2022-11-06T07:49:37.507Z,98462.84
2022-11-06T07:54:40.223Z,98463.56
2022-11-06T07:59:43.472Z,98454.06
2022-11-06T08:04:47.537Z,98451.75
2022-11-06T08:09:50.255Z,98444.22
2022-11-06T08:14:53.149Z,98435.28
2022-11-06T08:19:57.434Z,98426.91
2022-11-06T08:25:00.158Z,98435.41
2022-11-06T08:30:03.034Z,98427.31
2022-11-06T08:35:08.505Z,98423.72
2022-11-06T08:40:12.343Z,98413.59
2022-11-06T08:45:15.058Z,98412.47
2022-11-06T08:50:19.423Z,98408.75
2022-11-06T08:55:22.282Z,98397.94
2022-11-06T09:00:25.830Z,98387.66
2022-11-06T09:05:31.266Z,98399.75
2022-11-06T09:10:34.299Z,98384.09
2022-11-06T09:15:37.597Z,98369.38
2022-11-06T09:20:41.775Z,98366.16
2022-11-06T09:25:44.480Z,98364.00
2022-11-06T09:30:47.266Z,98349.41
2022-11-06T09:35:51.563Z,98335.19
2022-11-06T09:40:58.648Z,98334.47
2022-11-06T09:46:07.899Z,98331.50
2022-11-06T09:51:19.931Z,98325.94
2022-11-06T09:56:28.427Z,98321.41
2022-11-06T10:01:39.527Z,98320.91
2022-11-06T10:06:43.739Z,98301.94
2022-11-06T10:11:55.588Z,98311.75
2022-11-06T10:17:07.032Z,98303.84
2022-11-06T10:22:16.997Z,98308.03
2022-11-06T10:27:24.341Z,98298.28
2022-11-06T10:32:44.241Z,98292.81
2022-11-06T10:37:54.719Z,98287.41
2022-11-06T10:43:07.646Z,98280.25
2022-11-06T10:48:23.828Z,98263.41
2022-11-06T10:53:43.369Z,98258.97
2022-11-06T10:58:46.271Z,98249.66
2022-11-06T11:03:49.544Z,98235.41
2022-11-06T11:08:53.868Z,98208.66
2022-11-06T11:14:15.364Z,98207.28
2022-11-06T11:19:27.334Z,98194.63
2022-11-06T11:24:31.775Z,98171.34
2022-11-06T11:29:42.887Z,98156.69
2022-11-06T11:34:53.930Z,98134.25
2022-11-06T11:40:21.946Z,98110.78
2022-11-06T11:45:24.708Z,98105.03
2022-11-06T11:50:32.874Z,98111.72
2022-11-06T11:55:43.566Z,98105.63
2022-11-06T12:00:53.519Z,98095.75
2022-11-06T12:06:06.978Z,98082.72
2022-11-06T12:11:15.986Z,98111.34
2022-11-06T12:16:21.175Z,98073.16
2022-11-06T12:21:28.804Z,98083.38
2022-11-06T12:26:37.894Z,98106.06
2022-11-06T12:31:46.089Z,98078.75
2022-11-06T12:37:06.858Z,98056.09
2022-11-06T12:42:13.793Z,98044.06
2022-11-06T12:47:28.897Z,98019.22
2022-11-06T12:52:49.262Z,98020.03
2022-11-06T12:58:06.506Z,98009.06
2022-11-06T13:03:20.395Z,98011.00
2022-11-06T13:08:34.346Z,97978.34
2022-11-06T13:13:48.586Z,97991.16
2022-11-06T13:18:56.669Z,97974.88
2022-11-06T13:24:03.679Z,97967.00
2022-11-06T13:29:13.793Z,97948.81
2022-11-06T13:34:23.214Z,97951.25
2022-11-06T13:39:33.021Z,97959.22
2022-11-06T13:44:37.178Z,97951.50
2022-11-06T13:49:47.964Z,97955.31
2022-11-06T13:55:06.281Z,97944.50
2022-11-06T14:00:19.844Z,97945.91
2022-11-06T14:05:52.330Z,97956.69
2022-11-06T14:10:59.693Z,97947.59
2022-11-06T14:16:26.751Z,97938.75
2022-11-06T14:21:51.972Z,97945.50
2022-11-06T14:26:54.770Z,97939.28
2022-11-06T14:32:03.608Z,97939.28
2022-11-06T14:37:39.575Z,97932.41
2022-11-06T14:42:46.716Z,97933.53
2022-11-06T14:47:56.417Z,97914.75
2022-11-06T14:53:02.266Z,97913.88
2022-11-06T14:58:18.235Z,97911.91
2022-11-06T15:03:27.337Z,97912.59
2022-11-06T15:08:58.560Z,97918.75
2022-11-06T15:14:34.442Z,97914.38
2022-11-06T15:19:43.214Z,97897.28
2022-11-06T15:24:51.342Z,97893.38
2022-11-06T15:29:56.908Z,97874.63
2022-11-06T15:35:07.119Z,97865.66
2022-11-06T15:40:24.124Z,97883.84
2022-11-06T15:45:28.456Z,97904.00
2022-11-06T15:50:33.905Z,97926.09
2022-11-06T15:55:40.800Z,97899.63
2022-11-06T16:00:44.052Z,97896.25
2022-11-06T16:05:49.465Z,97914.84
2022-11-06T16:10:53.380Z,97913.72
2022-11-06T16:15:58.913Z,97912.63
2022-11-06T16:21:11.897Z,97905.38
2022-11-06T16:26:17.451Z,97900.88
2022-11-06T16:31:24.453Z,97909.00
2022-11-06T16:36:30.329Z,97900.31
2022-11-06T16:42:01.866Z,97908.03
2022-11-06T16:47:16.698Z,97900.06
2022-11-06T16:52:25.318Z,97884.81
2022-11-06T16:57:33.033Z,97877.22
2022-11-06T17:02:39.035Z,97865.47
2022-11-06T17:07:45.138Z,97850.66
2022-11-06T17:12:47.861Z,97810.06
2022-11-06T17:17:51.616Z,97824.44
2022-11-06T17:22:55.733Z,97840.91
2022-11-06T17:27:58.534Z,97830.41
2022-11-06T17:33:01.275Z,97796.84
2022-11-06T17:38:07.704Z,97827.16
2022-11-06T17:43:11.582Z,97816.19
2022-11-06T17:48:14.688Z,97814.03
2022-11-06T17:53:19.004Z,97868.56
2022-11-06T17:58:21.712Z,97873.59
2022-11-06T18:03:24.695Z,97885.03
2022-11-06T18:08:29.649Z,97875.00
2022-11-06T18:13:33.075Z,97883.81
2022-11-06T18:18:35.927Z,97869.00
2022-11-06T18:23:40.145Z,97875.84
2022-11-06T18:28:42.986Z,97859.78
2022-11-06T18:33:46.115Z,97865.91
2022-11-06T18:38:50.441Z,97833.34
2022-11-06T18:43:57.262Z,97826.66
2022-11-06T18:49:00.470Z,97811.81
2022-11-06T18:54:07.098Z,97833.06
2022-11-06T18:59:16.343Z,97828.03
2022-11-06T19:04:19.257Z,97823.56
2022-11-06T19:09:23.378Z,97838.66
2022-11-06T19:19:54.036Z,97863.13
2022-11-06T19:24:58.117Z,97835.72
2022-11-06T19:30:00.932Z,97840.31
2022-11-06T19:35:03.664Z,97850.94
2022-11-06T19:40:08.974Z,97851.09
2022-11-06T19:45:12.384Z,97856.69
2022-11-06T19:50:17.609Z,97852.19
2022-11-06T19:55:29.291Z,97842.97
2022-11-06T20:00:32.114Z,97847.22
2022-11-06T20:05:35.047Z,97852.78
2022-11-06T20:10:41.067Z,97857.41
2022-11-06T20:15:43.881Z,97858.09
2022-11-06T20:20:46.640Z,97865.91
2022-11-06T20:25:54.767Z,97875.56
2022-11-06T20:30:59.848Z,97880.75
2022-11-06T20:36:10.651Z,97879.44
2022-11-06T20:41:15.821Z,97883.06
2022-11-06T20:46:20.302Z,97884.94
2022-11-06T20:51:25.363Z,97901.50
2022-11-06T20:56:29.464Z,97910.19
2022-11-06T21:01:32.401Z,97904.75
2022-11-06T21:06:38.739Z,97924.06
2022-11-06T21:11:42.888Z,97928.13
2022-11-06T21:16:45.871Z,97918.22
2022-11-06T21:21:48.801Z,97933.63
2022-11-06T21:26:55.032Z,97948.19
2022-11-06T21:31:57.740Z,97948.50
2022-11-06T21:37:02.866Z,97951.63
2022-11-06T21:42:07.318Z,97953.88
2022-11-06T21:47:10.209Z,97958.19
2022-11-06T21:52:30.585Z,97961.31
2022-11-06T21:57:34.696Z,97967.22
2022-11-06T22:02:37.484Z,97953.53
2022-11-06T22:07:40.381Z,97947.25
2022-11-06T22:12:44.538Z,97948.91
2022-11-06T22:17:47.251Z,97946.97
2022-11-06T22:22:50.398Z,97947.78
2022-11-06T22:27:55.488Z,97943.88
2022-11-06T22:32:58.242Z,97947.53
2022-11-06T22:38:01.114Z,97957.88
2022-11-06T22:43:05.172Z,97963.94
2022-11-06T22:48:08.054Z,97983.09
2022-11-06T22:53:15.067Z,97989.13
2022-11-06T22:58:19.352Z,98000.34
2022-11-06T23:03:22.764Z,97993.09
2022-11-06T23:08:28.176Z,98001.38
2022-11-06T23:13:32.358Z,98002.91
2022-11-06T23:18:35.152Z,98001.09
2022-11-06T23:23:37.885Z,98010.50
2022-11-06T23:28:42.340Z,98021.69
2022-11-06T23:33:45.304Z,98025.91
2022-11-06T23:38:48.271Z,98015.97
2022-11-06T23:43:52.517Z,98022.84
2022-11-06T23:48:55.492Z,98031.41
2022-11-06T23:53:59.187Z,98026.78
2022-11-06T23:59:03.261Z,98031.13
